CYMX

Montreal-Mirabel International Airport

Airport
ICAO code
CYMX
IATA Code
YMX
Summary
ICAO Region
NAM
ICAO Territory
Location

Montreal, Quebec,

Serving
Montreal
Elevation
270 ft
Coordinates
45° 40' 15" N , 74° 1' 58" W
KCC
Metar
Observation
CYMX 040200Z 25011G20KT 210V270 25SM BKN030 OVC050 02/M01 A2988 RMK SC6SC2 SLP126
Station
Montreal / Mirabel
Date/Time
2022-12-04 02:00:00
Wind direction
250°
Wind speed
11 kts
Lowest cloud amount
broken clouds
Temperature
2°C
Dew point
-1°C
Humidity
80%
Weather condition
n/a

Description

An airport located 21 nm north west of Montreal city centre which was intended to replace Dorval as Montreal's main international airport but which never assumed that role. It currently survives as a relatively little-used cargo airport with closure and terminal demolition now expected.

Climatology

Humid Continental climate (Köppen climate classification Dfb) - The humid continental climate is marked by variable weather patterns and a large seasonal temperature variance. Summers are often warm and humid with frequent thunderstorms and winters can be very cold with frequent snowfall and persistent snow cover.

Runways

Designator Length Width Surface Rops
11/29 2698 61 CON Yes/Yes
6/24 3658 61 CON Yes/Yes

Airport map

Aerial View

SKYbrary Partners:

Safety knowledge contributed by: